createdAt,value
2018-12-25T00:05:11.829Z,1.07
2018-12-25T00:11:38.657Z,1.16
2018-12-25T00:18:05.492Z,1.12
2018-12-25T00:24:31.320Z,1.04
2018-12-25T00:30:56.891Z,0.94
2018-12-25T00:37:12.510Z,0.92
2018-12-25T00:43:01.082Z,0.98
2018-12-25T00:49:24.883Z,0.94
2018-12-25T00:55:50.734Z,0.82
2018-12-25T01:02:17.403Z,0.79
2018-12-25T01:08:45.298Z,0.82
2018-12-25T01:15:11.418Z,0.77
2018-12-25T01:21:39.044Z,0.75
2018-12-25T01:28:02.846Z,0.66
2018-12-25T01:34:29.889Z,0.62
2018-12-25T01:44:03.575Z,0.70
2018-12-25T01:50:32.421Z,0.59
2018-12-25T01:56:58.242Z,0.62
2018-12-25T02:03:24.065Z,0.60
2018-12-25T02:09:49.647Z,0.54
2018-12-25T02:16:13.442Z,0.43
2018-12-25T02:22:44.207Z,0.35
2018-12-25T02:29:15.421Z,0.34
2018-12-25T02:35:53.126Z,0.38
2018-12-25T02:45:20.986Z,0.33
2018-12-25T02:51:59.932Z,0.28
2018-12-25T02:58:38.883Z,0.36
2018-12-25T03:05:18.520Z,0.26
2018-12-25T03:12:01.586Z,0.21
2018-12-25T03:18:42.799Z,0.08
2018-12-25T03:25:09.630Z,0.03
2018-12-25T03:31:37.474Z,-0.02
2018-12-25T03:38:03.289Z,0.02
2018-12-25T03:43:53.205Z,0.00
2018-12-25T03:50:22.615Z,0.01
2018-12-25T03:57:05.610Z,-0.03
2018-12-25T04:03:44.347Z,-0.09
2018-12-25T04:10:24.121Z,-0.12
2018-12-25T04:17:09.520Z,-0.25
2018-12-25T04:23:35.343Z,-0.20
2018-12-25T04:30:02.971Z,-0.19
2018-12-25T04:36:30.013Z,-0.26
2018-12-25T04:42:45.659Z,-0.19
2018-12-25T04:49:02.465Z,-0.30
2018-12-25T04:55:32.038Z,-0.29
2018-12-25T05:01:58.143Z,-0.35
2018-12-25T05:08:24.983Z,-0.43
2018-12-25T05:14:49.781Z,-0.49
2018-12-25T05:21:16.256Z,-0.56
2018-12-25T05:27:57.583Z,-0.59
2018-12-25T05:34:25.286Z,-0.58
2018-12-25T05:40:53.055Z,-0.54
2018-12-25T05:47:20.088Z,-0.52
2018-12-25T05:53:36.822Z,-0.64
2018-12-25T06:00:19.813Z,-0.69
2018-12-25T06:06:56.741Z,-0.68
2018-12-25T06:13:40.404Z,-0.70
2018-12-25T06:20:35.862Z,-0.77
2018-12-25T06:27:04.700Z,-0.80
2018-12-25T06:33:32.581Z,-0.94
2018-12-25T06:40:06.398Z,-0.94
2018-12-25T06:45:56.913Z,-0.94
2018-12-25T06:59:23.902Z,-0.94
2018-12-25T07:05:55.784Z,-1.05
2018-12-25T07:12:21.608Z,-0.91
2018-12-25T07:18:49.285Z,-0.87
2018-12-25T07:25:18.302Z,-0.86
2018-12-25T07:31:44.122Z,-0.88
2018-12-25T07:38:09.693Z,-0.95
2018-12-25T07:50:53.208Z,-0.97
2018-12-25T08:01:07.582Z,-1.06
2018-12-25T08:07:39.462Z,-1.08
2018-12-25T08:14:07.099Z,-1.13
2018-12-25T08:20:34.130Z,-1.09
2018-12-25T08:27:06.011Z,-1.11
2018-12-25T08:33:36.523Z,-1.13
2018-12-25T08:40:07.295Z,-1.05
2018-12-25T08:45:55.869Z,-1.03
2018-12-25T08:52:25.812Z,-0.98
2018-12-25T09:02:39.130Z,-0.98
2018-12-25T09:09:20.835Z,-0.92
2018-12-25T09:16:05.923Z,-0.90
2018-12-25T09:22:51.850Z,-0.94
2018-12-25T09:29:35.131Z,-0.87
2018-12-25T09:36:27.210Z,-0.82
2018-12-25T09:42:31.510Z,-0.79
2018-12-25T09:49:12.792Z,-0.69
2018-12-25T09:55:47.376Z,-0.64
2018-12-25T10:06:03.800Z,-0.68
2018-12-25T10:12:43.759Z,-0.56
2018-12-25T10:19:27.390Z,-0.58
2018-12-25T10:26:06.443Z,-0.48
2018-12-25T10:32:43.641Z,-0.36
2018-12-25T10:39:26.405Z,-0.25
2018-12-25T10:46:05.362Z,-0.17
2018-12-25T10:52:44.322Z,-0.22
2018-12-25T10:59:11.364Z,-0.05
2018-12-25T11:09:04.918Z,-0.01
2018-12-25T11:15:48.229Z,0.08
2018-12-25T11:22:25.160Z,0.18
2018-12-25T11:29:04.108Z,0.21
2018-12-25T11:35:45.091Z,0.31
2018-12-25T11:42:22.024Z,0.41
2018-12-25T11:49:00.715Z,0.39
2018-12-25T11:55:30.827Z,0.49
2018-12-25T12:01:56.112Z,0.57
2018-12-25T12:12:13.753Z,0.72
2018-12-25T12:18:49.470Z,0.81
2018-12-25T12:25:28.428Z,0.91
2018-12-25T12:32:07.587Z,1.04
2018-12-25T12:38:47.977Z,1.08
2018-12-25T12:44:51.135Z,1.18
2018-12-25T12:51:30.093Z,1.22
2018-12-25T12:58:09.176Z,1.32
2018-12-25T13:01:04.525Z,1.33
2018-12-25T13:06:56.261Z,1.37
2018-12-25T13:13:22.080Z,1.45
2018-12-25T13:20:00.775Z,1.46
2018-12-25T13:26:39.982Z,1.55
2018-12-25T13:33:16.911Z,1.61
2018-12-25T13:39:55.870Z,1.64
2018-12-25T13:46:32.803Z,1.68
2018-12-25T13:53:02.846Z,1.67
2018-12-25T13:59:26.261Z,1.66
2018-12-25T14:09:40.540Z,1.69
2018-12-25T14:16:26.558Z,1.67
2018-12-25T14:22:54.079Z,1.72
2018-12-25T14:29:21.984Z,1.73
2018-12-25T14:35:47.826Z,1.74
2018-12-25T14:42:13.881Z,1.71
2018-12-25T14:48:37.479Z,1.68
2018-12-25T14:55:05.387Z,1.62
2018-12-25T15:01:32.351Z,1.53
2018-12-25T15:11:46.432Z,1.52
2018-12-25T15:18:15.992Z,1.45
2018-12-25T15:24:07.436Z,1.40
2018-12-25T15:30:33.598Z,1.32
2018-12-25T15:37:02.803Z,1.30
2018-12-25T15:43:34.359Z,1.21
2018-12-25T15:50:17.309Z,1.18
2018-12-25T15:56:45.150Z,1.10
2018-12-25T16:03:11.983Z,1.07
2018-12-25T16:13:14.566Z,0.94
2018-12-25T16:19:40.769Z,0.88
2018-12-25T16:25:34.272Z,0.85
2018-12-25T16:32:02.118Z,0.81
2018-12-25T16:38:40.761Z,0.72
2018-12-25T16:45:20.011Z,0.73
2018-12-25T16:51:58.962Z,0.63
2018-12-25T16:58:37.912Z,0.64
2018-12-25T17:05:18.634Z,0.56
2018-12-25T17:15:22.862Z,0.55
2018-12-25T17:22:02.592Z,0.41
2018-12-25T17:28:28.639Z,0.38
2018-12-25T17:34:55.101Z,0.28
2018-12-25T17:41:23.001Z,0.30
2018-12-25T17:47:50.907Z,0.27
2018-12-25T17:54:18.797Z,0.22
2018-12-25T18:00:43.800Z,0.22
2018-12-25T18:07:13.660Z,0.15
2018-12-25T18:17:18.755Z,0.11
2018-12-25T18:23:17.995Z,0.09
2018-12-25T18:29:49.081Z,0.07
2018-12-25T18:36:14.901Z,0.04
2018-12-25T18:42:42.750Z,0.00
2018-12-25T18:49:08.352Z,-0.06
2018-12-25T18:55:35.487Z,-0.07
2018-12-25T19:02:02.925Z,-0.12
2018-12-25T19:08:42.182Z,-0.15
2018-12-25T19:18:56.265Z,-0.25
2018-12-25T19:24:48.560Z,-0.28
2018-12-25T19:31:12.356Z,-0.33
2018-12-25T19:37:56.226Z,-0.37
2018-12-25T19:44:22.372Z,-0.37
2018-12-25T19:50:48.193Z,-0.36
2018-12-25T19:56:42.646Z,-0.47
2018-12-25T20:03:24.680Z,-0.47
2018-12-25T20:10:21.462Z,-0.53
2018-12-25T20:21:05.785Z,-0.70
2018-12-25T20:28:21.501Z,-0.69
2018-12-25T20:35:46.908Z,-0.72
2018-12-25T20:43:12.320Z,-0.79
2018-12-25T20:50:35.718Z,-0.92
2018-12-25T20:57:30.830Z,-0.92
2018-12-25T21:04:48.161Z,-0.96
2018-12-25T21:12:24.372Z,-0.96
2018-12-25T21:23:31.279Z,-1.16
2018-12-25T21:30:00.140Z,-1.10
2018-12-25T21:36:37.067Z,-1.12
2018-12-25T21:43:03.505Z,-1.22
2018-12-25T21:49:48.900Z,-1.20
2018-12-25T21:56:18.765Z,-1.22
2018-12-25T22:03:01.761Z,-1.28
2018-12-25T22:09:41.711Z,-1.40
2018-12-25T22:16:20.747Z,-1.36
2018-12-25T22:26:23.284Z,-1.46
2018-12-25T22:33:02.578Z,-1.47
2018-12-25T22:39:43.549Z,-1.52
2018-12-25T22:46:22.502Z,-1.51
2018-12-25T22:53:03.470Z,-1.58
2018-12-25T22:59:11.856Z,-1.70
2018-12-25T23:05:52.868Z,-1.65
2018-12-25T23:12:31.820Z,-1.65
2018-12-25T23:19:10.776Z,-1.71
2018-12-25T23:28:39.312Z,-1.76
2018-12-25T23:35:05.449Z,-1.88
2018-12-25T23:41:31.019Z,-1.89
2018-12-25T23:47:56.863Z,-1.96
2018-12-25T23:54:25.580Z,-1.95
